sensor_id;sensor_type;location;lat;lon;timestamp;temperature;humidity
31379;DHT22;61664;48.112;11.662;2023-07-31T00:00:05;21.30;68.00
31379;DHT22;61664;48.112;11.662;2023-07-31T00:02:32;21.30;67.90
31379;DHT22;61664;48.112;11.662;2023-07-31T00:05:00;21.20;67.90
31379;DHT22;61664;48.112;11.662;2023-07-31T00:07:27;21.20;68.00
31379;DHT22;61664;48.112;11.662;2023-07-31T00:09:54;21.20;67.90
31379;DHT22;61664;48.112;11.662;2023-07-31T00:12:23;21.20;68.20
31379;DHT22;61664;48.112;11.662;2023-07-31T00:14:50;21.20;68.20
31379;DHT22;61664;48.112;11.662;2023-07-31T00:17:17;21.10;68.00
31379;DHT22;61664;48.112;11.662;2023-07-31T00:19:44;21.10;68.00
31379;DHT22;61664;48.112;11.662;2023-07-31T00:22:12;21.10;68.20
31379;DHT22;61664;48.112;11.662;2023-07-31T00:24:39;21.10;68.10
31379;DHT22;61664;48.112;11.662;2023-07-31T00:27:06;21.10;68.40
31379;DHT22;61664;48.112;11.662;2023-07-31T00:29:33;21.00;68.40
31379;DHT22;61664;48.112;11.662;2023-07-31T00:32:00;21.00;68.30
31379;DHT22;61664;48.112;11.662;2023-07-31T00:34:27;21.00;68.50
31379;DHT22;61664;48.112;11.662;2023-07-31T00:36:54;21.00;68.40
31379;DHT22;61664;48.112;11.662;2023-07-31T00:39:21;21.00;68.40
31379;DHT22;61664;48.112;11.662;2023-07-31T00:41:48;20.90;68.40
31379;DHT22;61664;48.112;11.662;2023-07-31T00:44:15;20.90;68.30
31379;DHT22;61664;48.112;11.662;2023-07-31T00:46:42;20.80;68.50
31379;DHT22;61664;48.112;11.662;2023-07-31T00:49:09;20.80;68.60
31379;DHT22;61664;48.112;11.662;2023-07-31T00:51:37;20.80;68.70
31379;DHT22;61664;48.112;11.662;2023-07-31T00:54:04;20.80;68.90
31379;DHT22;61664;48.112;11.662;2023-07-31T00:56:33;20.80;69.00
31379;DHT22;61664;48.112;11.662;2023-07-31T00:59:00;20.70;68.90
31379;DHT22;61664;48.112;11.662;2023-07-31T01:01:27;20.70;69.00
31379;DHT22;61664;48.112;11.662;2023-07-31T01:03:54;20.70;69.00
31379;DHT22;61664;48.112;11.662;2023-07-31T01:08:56;20.60;69.10
31379;DHT22;61664;48.112;11.662;2023-07-31T01:11:33;20.60;67.80
31379;DHT22;61664;48.112;11.662;2023-07-31T01:14:05;20.60;69.20
31379;DHT22;61664;48.112;11.662;2023-07-31T01:16:32;20.60;69.50
31379;DHT22;61664;48.112;11.662;2023-07-31T01:18:59;20.60;69.90
31379;DHT22;61664;48.112;11.662;2023-07-31T01:24:26;20.60;67.40
31379;DHT22;61664;48.112;11.662;2023-07-31T01:27:19;20.60;66.80
31379;DHT22;61664;48.112;11.662;2023-07-31T01:29:59;20.60;67.60
31379;DHT22;61664;48.112;11.662;2023-07-31T01:32:40;20.60;68.10
31379;DHT22;61664;48.112;11.662;2023-07-31T01:35:09;20.60;69.20
31379;DHT22;61664;48.112;11.662;2023-07-31T01:37:36;20.60;70.10
31379;DHT22;61664;48.112;11.662;2023-07-31T01:40:06;20.60;70.10
31379;DHT22;61664;48.112;11.662;2023-07-31T01:42:33;20.60;70.00
31379;DHT22;61664;48.112;11.662;2023-07-31T01:45:00;20.60;70.10
31379;DHT22;61664;48.112;11.662;2023-07-31T01:47:27;20.60;70.10
31379;DHT22;61664;48.112;11.662;2023-07-31T01:49:54;20.70;69.90
31379;DHT22;61664;48.112;11.662;2023-07-31T01:52:21;20.70;69.90
31379;DHT22;61664;48.112;11.662;2023-07-31T01:54:48;20.70;70.10
31379;DHT22;61664;48.112;11.662;2023-07-31T01:57:15;20.70;69.90
31379;DHT22;61664;48.112;11.662;2023-07-31T01:59:42;20.70;70.10
31379;DHT22;61664;48.112;11.662;2023-07-31T02:02:09;20.70;70.00
31379;DHT22;61664;48.112;11.662;2023-07-31T02:04:36;20.70;69.90
31379;DHT22;61664;48.112;11.662;2023-07-31T02:07:05;20.70;70.10
31379;DHT22;61664;48.112;11.662;2023-07-31T02:09:32;20.70;69.90
31379;DHT22;61664;48.112;11.662;2023-07-31T02:11:59;20.70;70.00
31379;DHT22;61664;48.112;11.662;2023-07-31T02:14:26;20.70;70.30
31379;DHT22;61664;48.112;11.662;2023-07-31T02:16:52;20.70;70.30
31379;DHT22;61664;48.112;11.662;2023-07-31T02:19:19;20.70;70.30
31379;DHT22;61664;48.112;11.662;2023-07-31T02:21:46;20.70;70.10
31379;DHT22;61664;48.112;11.662;2023-07-31T02:24:13;20.70;70.00
31379;DHT22;61664;48.112;11.662;2023-07-31T02:26:40;20.70;70.00
31379;DHT22;61664;48.112;11.662;2023-07-31T02:29:09;20.80;69.90
31379;DHT22;61664;48.112;11.662;2023-07-31T02:31:36;20.80;70.10
31379;DHT22;61664;48.112;11.662;2023-07-31T02:34:03;20.70;70.00
31379;DHT22;61664;48.112;11.662;2023-07-31T02:36:29;20.80;69.80
31379;DHT22;61664;48.112;11.662;2023-07-31T02:38:56;20.70;69.90
31379;DHT22;61664;48.112;11.662;2023-07-31T02:41:23;20.70;69.80
31379;DHT22;61664;48.112;11.662;2023-07-31T02:43:50;20.70;70.10
31379;DHT22;61664;48.112;11.662;2023-07-31T02:46:17;20.70;70.10
31379;DHT22;61664;48.112;11.662;2023-07-31T02:48:44;20.70;69.90
31379;DHT22;61664;48.112;11.662;2023-07-31T02:51:11;20.70;70.00
31379;DHT22;61664;48.112;11.662;2023-07-31T02:53:38;20.60;69.90
31379;DHT22;61664;48.112;11.662;2023-07-31T02:56:05;20.60;69.90
31379;DHT22;61664;48.112;11.662;2023-07-31T02:58:32;20.60;69.80
31379;DHT22;61664;48.112;11.662;2023-07-31T03:00:59;20.60;69.90
31379;DHT22;61664;48.112;11.662;2023-07-31T03:03:26;20.50;69.90
31379;DHT22;61664;48.112;11.662;2023-07-31T03:05:53;20.50;69.90
31379;DHT22;61664;48.112;11.662;2023-07-31T03:08:20;20.50;70.40
31379;DHT22;61664;48.112;11.662;2023-07-31T03:10:47;20.50;69.90
31379;DHT22;61664;48.112;11.662;2023-07-31T03:13:14;20.40;70.00
31379;DHT22;61664;48.112;11.662;2023-07-31T03:15:44;20.40;70.00
31379;DHT22;61664;48.112;11.662;2023-07-31T03:18:11;20.30;69.40
31379;DHT22;61664;48.112;11.662;2023-07-31T03:20:42;20.30;70.30
31379;DHT22;61664;48.112;11.662;2023-07-31T03:23:10;20.30;69.60
31379;DHT22;61664;48.112;11.662;2023-07-31T03:25:37;20.20;70.50
31379;DHT22;61664;48.112;11.662;2023-07-31T03:28:04;20.20;70.60
31379;DHT22;61664;48.112;11.662;2023-07-31T03:30:31;20.20;70.70
31379;DHT22;61664;48.112;11.662;2023-07-31T03:32:58;20.20;70.70
31379;DHT22;61664;48.112;11.662;2023-07-31T03:35:25;20.10;70.70
31379;DHT22;61664;48.112;11.662;2023-07-31T03:37:52;20.10;70.60
31379;DHT22;61664;48.112;11.662;2023-07-31T03:40:19;20.10;70.70
31379;DHT22;61664;48.112;11.662;2023-07-31T03:42:46;20.00;70.60
31379;DHT22;61664;48.112;11.662;2023-07-31T03:45:12;20.00;70.60
31379;DHT22;61664;48.112;11.662;2023-07-31T03:47:39;20.00;70.60
31379;DHT22;61664;48.112;11.662;2023-07-31T03:50:07;20.00;70.70
31379;DHT22;61664;48.112;11.662;2023-07-31T03:52:34;19.90;70.80
31379;DHT22;61664;48.112;11.662;2023-07-31T03:55:01;19.90;70.90
31379;DHT22;61664;48.112;11.662;2023-07-31T03:57:28;19.90;71.00
31379;DHT22;61664;48.112;11.662;2023-07-31T03:59:55;19.80;71.10
31379;DHT22;61664;48.112;11.662;2023-07-31T04:02:21;19.80;71.10
31379;DHT22;61664;48.112;11.662;2023-07-31T04:04:48;19.80;71.20
31379;DHT22;61664;48.112;11.662;2023-07-31T04:07:15;19.80;71.80
31379;DHT22;61664;48.112;11.662;2023-07-31T04:09:42;19.70;71.40
31379;DHT22;61664;48.112;11.662;2023-07-31T04:12:13;19.80;71.40
31379;DHT22;61664;48.112;11.662;2023-07-31T04:14:40;19.80;71.60
31379;DHT22;61664;48.112;11.662;2023-07-31T04:17:06;19.80;71.70
31379;DHT22;61664;48.112;11.662;2023-07-31T04:19:37;19.80;71.60
31379;DHT22;61664;48.112;11.662;2023-07-31T04:22:04;19.80;69.90
31379;DHT22;61664;48.112;11.662;2023-07-31T04:24:31;19.80;72.00
31379;DHT22;61664;48.112;11.662;2023-07-31T04:26:58;19.80;72.00
31379;DHT22;61664;48.112;11.662;2023-07-31T04:29:25;19.70;72.20
31379;DHT22;61664;48.112;11.662;2023-07-31T04:31:52;19.70;72.30
31379;DHT22;61664;48.112;11.662;2023-07-31T04:34:19;19.70;72.40
31379;DHT22;61664;48.112;11.662;2023-07-31T04:36:46;19.70;72.40
31379;DHT22;61664;48.112;11.662;2023-07-31T04:39:13;19.80;72.40
31379;DHT22;61664;48.112;11.662;2023-07-31T04:41:40;19.70;72.20
31379;DHT22;61664;48.112;11.662;2023-07-31T04:44:06;19.80;72.30
31379;DHT22;61664;48.112;11.662;2023-07-31T04:46:33;19.80;72.30
31379;DHT22;61664;48.112;11.662;2023-07-31T04:49:00;19.80;72.30
31379;DHT22;61664;48.112;11.662;2023-07-31T04:51:27;19.80;72.40
31379;DHT22;61664;48.112;11.662;2023-07-31T04:53:54;19.80;72.40
31379;DHT22;61664;48.112;11.662;2023-07-31T04:56:22;19.80;72.40
31379;DHT22;61664;48.112;11.662;2023-07-31T04:58:49;19.80;72.50
31379;DHT22;61664;48.112;11.662;2023-07-31T05:01:16;19.80;72.50
31379;DHT22;61664;48.112;11.662;2023-07-31T05:03:43;19.80;72.40
31379;DHT22;61664;48.112;11.662;2023-07-31T05:06:10;19.80;72.60
31379;DHT22;61664;48.112;11.662;2023-07-31T05:08:37;19.80;72.70
31379;DHT22;61664;48.112;11.662;2023-07-31T05:11:04;19.80;72.80
31379;DHT22;61664;48.112;11.662;2023-07-31T05:13:31;19.80;72.80
31379;DHT22;61664;48.112;11.662;2023-07-31T05:15:58;19.90;72.80
31379;DHT22;61664;48.112;11.662;2023-07-31T05:18:28;19.90;72.90
31379;DHT22;61664;48.112;11.662;2023-07-31T05:20:55;19.90;72.90
31379;DHT22;61664;48.112;11.662;2023-07-31T05:23:22;19.90;72.90
31379;DHT22;61664;48.112;11.662;2023-07-31T05:25:49;19.90;72.90
31379;DHT22;61664;48.112;11.662;2023-07-31T05:28:16;19.90;72.90
31379;DHT22;61664;48.112;11.662;2023-07-31T05:30:43;20.00;73.00
31379;DHT22;61664;48.112;11.662;2023-07-31T05:33:10;20.00;73.00
31379;DHT22;61664;48.112;11.662;2023-07-31T05:35:40;20.00;73.10
31379;DHT22;61664;48.112;11.662;2023-07-31T05:38:07;20.10;73.10
31379;DHT22;61664;48.112;11.662;2023-07-31T05:40:34;20.10;72.90
31379;DHT22;61664;48.112;11.662;2023-07-31T05:43:01;20.10;73.30
31379;DHT22;61664;48.112;11.662;2023-07-31T05:45:28;20.20;72.70
31379;DHT22;61664;48.112;11.662;2023-07-31T05:47:55;20.20;72.80
31379;DHT22;61664;48.112;11.662;2023-07-31T05:50:22;20.30;73.00
31379;DHT22;61664;48.112;11.662;2023-07-31T05:52:49;20.30;73.00
31379;DHT22;61664;48.112;11.662;2023-07-31T05:55:16;20.40;73.00
31379;DHT22;61664;48.112;11.662;2023-07-31T05:57:43;20.40;72.90
31379;DHT22;61664;48.112;11.662;2023-07-31T06:00:13;20.50;73.00
31379;DHT22;61664;48.112;11.662;2023-07-31T06:02:40;20.50;73.00
31379;DHT22;61664;48.112;11.662;2023-07-31T06:05:07;20.70;73.20
31379;DHT22;61664;48.112;11.662;2023-07-31T06:07:35;20.70;72.80
31379;DHT22;61664;48.112;11.662;2023-07-31T06:10:02;20.80;72.60
31379;DHT22;61664;48.112;11.662;2023-07-31T06:12:32;20.90;72.30
31379;DHT22;61664;48.112;11.662;2023-07-31T06:14:59;21.00;72.10
31379;DHT22;61664;48.112;11.662;2023-07-31T06:17:27;21.00;71.90
31379;DHT22;61664;48.112;11.662;2023-07-31T06:19:54;21.10;71.60
31379;DHT22;61664;48.112;11.662;2023-07-31T06:22:21;21.10;71.00
31379;DHT22;61664;48.112;11.662;2023-07-31T06:24:48;21.20;70.90
31379;DHT22;61664;48.112;11.662;2023-07-31T06:27:14;21.20;71.10
31379;DHT22;61664;48.112;11.662;2023-07-31T06:29:42;21.30;71.40
31379;DHT22;61664;48.112;11.662;2023-07-31T06:32:09;21.40;71.20
31379;DHT22;61664;48.112;11.662;2023-07-31T06:34:36;21.50;71.20
31379;DHT22;61664;48.112;11.662;2023-07-31T06:37:03;21.50;70.90
31379;DHT22;61664;48.112;11.662;2023-07-31T06:39:31;21.60;71.00
31379;DHT22;61664;48.112;11.662;2023-07-31T06:41:58;21.60;70.90
31379;DHT22;61664;48.112;11.662;2023-07-31T06:44:24;21.70;70.60
31379;DHT22;61664;48.112;11.662;2023-07-31T06:46:51;21.80;70.30
31379;DHT22;61664;48.112;11.662;2023-07-31T06:49:18;21.80;69.70
31379;DHT22;61664;48.112;11.662;2023-07-31T06:51:45;21.90;69.40
31379;DHT22;61664;48.112;11.662;2023-07-31T06:54:12;21.90;69.30
31379;DHT22;61664;48.112;11.662;2023-07-31T06:56:39;21.90;69.10
31379;DHT22;61664;48.112;11.662;2023-07-31T06:59:07;21.90;68.90
31379;DHT22;61664;48.112;11.662;2023-07-31T07:01:34;21.90;68.90
31379;DHT22;61664;48.112;11.662;2023-07-31T07:04:01;21.90;69.00
31379;DHT22;61664;48.112;11.662;2023-07-31T07:06:28;22.00;69.00
31379;DHT22;61664;48.112;11.662;2023-07-31T07:08:55;22.00;68.90
31379;DHT22;61664;48.112;11.662;2023-07-31T07:11:22;22.10;69.20
31379;DHT22;61664;48.112;11.662;2023-07-31T07:13:49;22.10;68.30
31379;DHT22;61664;48.112;11.662;2023-07-31T07:16:16;22.10;67.90
31379;DHT22;61664;48.112;11.662;2023-07-31T07:18:43;22.10;67.40
31379;DHT22;61664;48.112;11.662;2023-07-31T07:21:28;22.10;67.60
31379;DHT22;61664;48.112;11.662;2023-07-31T07:23:55;22.20;67.90
31379;DHT22;61664;48.112;11.662;2023-07-31T07:26:22;22.20;68.00
31379;DHT22;61664;48.112;11.662;2023-07-31T07:28:49;22.20;67.80
31379;DHT22;61664;48.112;11.662;2023-07-31T07:31:16;22.20;67.30
31379;DHT22;61664;48.112;11.662;2023-07-31T07:33:43;22.20;67.50
31379;DHT22;61664;48.112;11.662;2023-07-31T07:36:10;22.20;67.70
31379;DHT22;61664;48.112;11.662;2023-07-31T07:38:39;22.10;67.50
31379;DHT22;61664;48.112;11.662;2023-07-31T07:41:06;22.30;67.50
31379;DHT22;61664;48.112;11.662;2023-07-31T07:43:33;22.30;67.20
31379;DHT22;61664;48.112;11.662;2023-07-31T07:46:00;22.30;67.30
31379;DHT22;61664;48.112;11.662;2023-07-31T07:48:26;22.40;67.50
31379;DHT22;61664;48.112;11.662;2023-07-31T07:50:53;22.40;67.60
31379;DHT22;61664;48.112;11.662;2023-07-31T07:53:21;22.50;67.30
31379;DHT22;61664;48.112;11.662;2023-07-31T07:55:47;22.50;67.40
31379;DHT22;61664;48.112;11.662;2023-07-31T07:58:14;22.60;67.30
31379;DHT22;61664;48.112;11.662;2023-07-31T08:00:41;22.70;67.30
31379;DHT22;61664;48.112;11.662;2023-07-31T08:03:08;22.80;67.60
31379;DHT22;61664;48.112;11.662;2023-07-31T08:05:36;22.90;67.70
31379;DHT22;61664;48.112;11.662;2023-07-31T08:08:03;23.00;67.30
31379;DHT22;61664;48.112;11.662;2023-07-31T08:10:30;23.10;66.80
31379;DHT22;61664;48.112;11.662;2023-07-31T08:12:57;23.10;66.50
31379;DHT22;61664;48.112;11.662;2023-07-31T08:15:24;23.20;66.70
31379;DHT22;61664;48.112;11.662;2023-07-31T08:17:51;23.20;66.70
31379;DHT22;61664;48.112;11.662;2023-07-31T08:20:18;23.30;66.70
31379;DHT22;61664;48.112;11.662;2023-07-31T08:22:44;23.40;66.20
31379;DHT22;61664;48.112;11.662;2023-07-31T08:25:11;23.50;66.00
31379;DHT22;61664;48.112;11.662;2023-07-31T08:27:38;23.70;65.80
31379;DHT22;61664;48.112;11.662;2023-07-31T08:30:11;23.80;66.00
31379;DHT22;61664;48.112;11.662;2023-07-31T08:32:38;23.90;65.90
31379;DHT22;61664;48.112;11.662;2023-07-31T08:35:06;24.00;65.40
31379;DHT22;61664;48.112;11.662;2023-07-31T08:37:33;24.20;65.20
31379;DHT22;61664;48.112;11.662;2023-07-31T08:40:00;24.30;64.50
31379;DHT22;61664;48.112;11.662;2023-07-31T08:42:26;24.40;64.10
31379;DHT22;61664;48.112;11.662;2023-07-31T08:44:56;24.60;63.00
31379;DHT22;61664;48.112;11.662;2023-07-31T08:47:25;24.60;63.00
31379;DHT22;61664;48.112;11.662;2023-07-31T08:49:53;24.60;62.60
31379;DHT22;61664;48.112;11.662;2023-07-31T08:52:22;24.60;62.30
31379;DHT22;61664;48.112;11.662;2023-07-31T08:54:49;24.60;62.70
31379;DHT22;61664;48.112;11.662;2023-07-31T08:57:16;24.50;62.20
31379;DHT22;61664;48.112;11.662;2023-07-31T08:59:45;24.50;61.90
31379;DHT22;61664;48.112;11.662;2023-07-31T09:02:15;24.50;61.70
31379;DHT22;61664;48.112;11.662;2023-07-31T09:04:44;24.40;61.10
31379;DHT22;61664;48.112;11.662;2023-07-31T09:07:12;24.30;61.40
31379;DHT22;61664;48.112;11.662;2023-07-31T09:09:40;24.30;61.50
31379;DHT22;61664;48.112;11.662;2023-07-31T09:12:07;24.20;62.00
31379;DHT22;61664;48.112;11.662;2023-07-31T09:14:35;24.10;61.80
31379;DHT22;61664;48.112;11.662;2023-07-31T09:17:03;24.10;61.80
31379;DHT22;61664;48.112;11.662;2023-07-31T09:19:35;24.00;62.10
31379;DHT22;61664;48.112;11.662;2023-07-31T09:22:06;24.00;61.30
31379;DHT22;61664;48.112;11.662;2023-07-31T09:24:34;24.00;62.60
31379;DHT22;61664;48.112;11.662;2023-07-31T09:27:01;24.10;63.00
31379;DHT22;61664;48.112;11.662;2023-07-31T09:29:29;24.20;63.50
31379;DHT22;61664;48.112;11.662;2023-07-31T09:31:56;24.40;63.60
31379;DHT22;61664;48.112;11.662;2023-07-31T09:34:30;24.60;64.10
31379;DHT22;61664;48.112;11.662;2023-07-31T09:37:07;25.00;61.50
31379;DHT22;61664;48.112;11.662;2023-07-31T09:39:46;25.30;63.10
31379;DHT22;61664;48.112;11.662;2023-07-31T09:42:14;25.60;60.20
31379;DHT22;61664;48.112;11.662;2023-07-31T09:44:51;25.80;61.20
31379;DHT22;61664;48.112;11.662;2023-07-31T09:47:26;26.00;60.60
31379;DHT22;61664;48.112;11.662;2023-07-31T09:49:53;26.10;58.80
31379;DHT22;61664;48.112;11.662;2023-07-31T09:52:20;26.40;60.30
31379;DHT22;61664;48.112;11.662;2023-07-31T09:54:47;26.60;59.30
31379;DHT22;61664;48.112;11.662;2023-07-31T09:57:16;26.80;59.20
31379;DHT22;61664;48.112;11.662;2023-07-31T09:59:45;27.10;59.00
31379;DHT22;61664;48.112;11.662;2023-07-31T10:02:19;27.40;58.40
31379;DHT22;61664;48.112;11.662;2023-07-31T10:04:51;27.70;57.10
31379;DHT22;61664;48.112;11.662;2023-07-31T10:07:25;27.90;57.50
31379;DHT22;61664;48.112;11.662;2023-07-31T10:09:55;28.20;57.30
31379;DHT22;61664;48.112;11.662;2023-07-31T10:12:31;28.40;56.80
31379;DHT22;61664;48.112;11.662;2023-07-31T10:15:00;28.70;54.00
31379;DHT22;61664;48.112;11.662;2023-07-31T10:17:29;28.90;55.50
31379;DHT22;61664;48.112;11.662;2023-07-31T10:19:58;29.10;54.40
31379;DHT22;61664;48.112;11.662;2023-07-31T10:22:30;29.40;54.90
31379;DHT22;61664;48.112;11.662;2023-07-31T10:24:59;29.60;54.60
31379;DHT22;61664;48.112;11.662;2023-07-31T10:27:27;29.90;54.30
31379;DHT22;61664;48.112;11.662;2023-07-31T10:29:55;30.00;53.50
31379;DHT22;61664;48.112;11.662;2023-07-31T10:32:25;30.10;52.20
31379;DHT22;61664;48.112;11.662;2023-07-31T10:34:53;30.20;53.40
31379;DHT22;61664;48.112;11.662;2023-07-31T10:42:36;30.60;51.60
31379;DHT22;61664;48.112;11.662;2023-07-31T10:45:07;30.80;48.00
31379;DHT22;61664;48.112;11.662;2023-07-31T10:47:45;30.80;49.80
31379;DHT22;61664;48.112;11.662;2023-07-31T10:50:13;30.70;47.40
31379;DHT22;61664;48.112;11.662;2023-07-31T10:52:48;30.60;48.60
31379;DHT22;61664;48.112;11.662;2023-07-31T10:55:32;30.30;47.90
31379;DHT22;61664;48.112;11.662;2023-07-31T10:58:10;30.10;47.50
31379;DHT22;61664;48.112;11.662;2023-07-31T11:00:41;29.80;49.90
31379;DHT22;61664;48.112;11.662;2023-07-31T11:03:19;29.50;49.30
31379;DHT22;61664;48.112;11.662;2023-07-31T11:05:51;29.20;47.90
31379;DHT22;61664;48.112;11.662;2023-07-31T11:08:27;28.90;48.70
31379;DHT22;61664;48.112;11.662;2023-07-31T11:13:29;28.30;49.00
31379;DHT22;61664;48.112;11.662;2023-07-31T11:15:57;28.20;49.90
31379;DHT22;61664;48.112;11.662;2023-07-31T11:18:26;28.10;50.50
31379;DHT22;61664;48.112;11.662;2023-07-31T11:20:54;28.00;50.30
31379;DHT22;61664;48.112;11.662;2023-07-31T11:23:22;28.00;51.30
31379;DHT22;61664;48.112;11.662;2023-07-31T11:25:50;28.00;51.10
31379;DHT22;61664;48.112;11.662;2023-07-31T11:28:18;28.00;50.90
31379;DHT22;61664;48.112;11.662;2023-07-31T11:30:46;28.00;50.80
31379;DHT22;61664;48.112;11.662;2023-07-31T11:33:13;28.00;50.80
31379;DHT22;61664;48.112;11.662;2023-07-31T11:35:50;27.90;51.00
31379;DHT22;61664;48.112;11.662;2023-07-31T11:38:26;27.90;50.10
31379;DHT22;61664;48.112;11.662;2023-07-31T11:41:00;27.80;49.10
31379;DHT22;61664;48.112;11.662;2023-07-31T11:43:30;27.70;50.10
31379;DHT22;61664;48.112;11.662;2023-07-31T11:45:59;27.60;51.00
31379;DHT22;61664;48.112;11.662;2023-07-31T11:48:33;27.50;51.40
31379;DHT22;61664;48.112;11.662;2023-07-31T11:51:04;27.40;51.30
31379;DHT22;61664;48.112;11.662;2023-07-31T11:56:07;27.20;51.90
31379;DHT22;61664;48.112;11.662;2023-07-31T11:58:38;27.20;51.60
31379;DHT22;61664;48.112;11.662;2023-07-31T12:01:06;27.10;52.20
31379;DHT22;61664;48.112;11.662;2023-07-31T12:03:34;27.10;51.40
31379;DHT22;61664;48.112;11.662;2023-07-31T12:06:02;27.00;51.30
31379;DHT22;61664;48.112;11.662;2023-07-31T12:08:29;27.00;52.00
31379;DHT22;61664;48.112;11.662;2023-07-31T12:11:03;27.00;51.50
31379;DHT22;61664;48.112;11.662;2023-07-31T12:13:32;26.90;49.80
31379;DHT22;61664;48.112;11.662;2023-07-31T12:16:01;26.80;51.70
31379;DHT22;61664;48.112;11.662;2023-07-31T12:18:37;26.80;51.30
31379;DHT22;61664;48.112;11.662;2023-07-31T12:21:06;26.80;49.00
31379;DHT22;61664;48.112;11.662;2023-07-31T12:23:36;26.70;51.50
31379;DHT22;61664;48.112;11.662;2023-07-31T12:26:11;26.80;52.30
31379;DHT22;61664;48.112;11.662;2023-07-31T12:28:49;26.70;52.00
31379;DHT22;61664;48.112;11.662;2023-07-31T12:31:20;26.80;50.30
31379;DHT22;61664;48.112;11.662;2023-07-31T12:33:51;26.80;52.30
31379;DHT22;61664;48.112;11.662;2023-07-31T12:36:27;26.90;51.20
31379;DHT22;61664;48.112;11.662;2023-07-31T12:38:55;27.00;50.80
31379;DHT22;61664;48.112;11.662;2023-07-31T12:41:26;27.20;52.00
31379;DHT22;61664;48.112;11.662;2023-07-31T12:43:53;27.30;52.20
31379;DHT22;61664;48.112;11.662;2023-07-31T12:46:20;27.40;52.40
31379;DHT22;61664;48.112;11.662;2023-07-31T12:48:47;27.60;52.60
31379;DHT22;61664;48.112;11.662;2023-07-31T12:51:14;27.70;52.20
31379;DHT22;61664;48.112;11.662;2023-07-31T12:53:41;27.80;51.90
31379;DHT22;61664;48.112;11.662;2023-07-31T12:56:08;27.80;52.00
31379;DHT22;61664;48.112;11.662;2023-07-31T12:58:34;27.90;51.90
31379;DHT22;61664;48.112;11.662;2023-07-31T13:01:01;27.90;52.00
31379;DHT22;61664;48.112;11.662;2023-07-31T13:03:29;28.00;50.90
31379;DHT22;61664;48.112;11.662;2023-07-31T13:05:56;28.10;50.80
31379;DHT22;61664;48.112;11.662;2023-07-31T13:08:23;28.10;51.00
31379;DHT22;61664;48.112;11.662;2023-07-31T13:10:49;28.20;50.70
31379;DHT22;61664;48.112;11.662;2023-07-31T13:13:16;28.20;50.60
31379;DHT22;61664;48.112;11.662;2023-07-31T13:15:44;28.30;50.10
31379;DHT22;61664;48.112;11.662;2023-07-31T13:18:11;28.30;49.40
31379;DHT22;61664;48.112;11.662;2023-07-31T13:20:38;28.40;50.60
31379;DHT22;61664;48.112;11.662;2023-07-31T13:23:05;28.50;50.10
31379;DHT22;61664;48.112;11.662;2023-07-31T13:25:32;28.50;50.40
31379;DHT22;61664;48.112;11.662;2023-07-31T13:27:59;28.70;49.70
31379;DHT22;61664;48.112;11.662;2023-07-31T13:30:29;28.80;49.80
31379;DHT22;61664;48.112;11.662;2023-07-31T13:32:56;28.80;49.40
31379;DHT22;61664;48.112;11.662;2023-07-31T13:35:23;28.90;49.60
31379;DHT22;61664;48.112;11.662;2023-07-31T13:37:50;28.90;49.70
31379;DHT22;61664;48.112;11.662;2023-07-31T13:40:17;28.90;49.60
31379;DHT22;61664;48.112;11.662;2023-07-31T13:42:44;28.90;49.00
31379;DHT22;61664;48.112;11.662;2023-07-31T13:45:11;28.90;48.70
31379;DHT22;61664;48.112;11.662;2023-07-31T13:47:37;28.90;49.30
31379;DHT22;61664;48.112;11.662;2023-07-31T13:50:05;28.90;49.90
31379;DHT22;61664;48.112;11.662;2023-07-31T13:52:32;29.10;50.60
31379;DHT22;61664;48.112;11.662;2023-07-31T13:54:59;29.20;50.50
31379;DHT22;61664;48.112;11.662;2023-07-31T13:57:26;29.40;49.70
31379;DHT22;61664;48.112;11.662;2023-07-31T13:59:53;29.60;49.50
31379;DHT22;61664;48.112;11.662;2023-07-31T14:02:20;29.70;49.80
31379;DHT22;61664;48.112;11.662;2023-07-31T14:04:47;29.80;49.80
31379;DHT22;61664;48.112;11.662;2023-07-31T14:07:14;30.00;49.90
31379;DHT22;61664;48.112;11.662;2023-07-31T14:09:41;30.20;50.30
31379;DHT22;61664;48.112;11.662;2023-07-31T14:12:08;30.50;50.40
31379;DHT22;61664;48.112;11.662;2023-07-31T14:14:34;30.60;49.50
31379;DHT22;61664;48.112;11.662;2023-07-31T14:17:01;30.80;48.60
31379;DHT22;61664;48.112;11.662;2023-07-31T14:19:29;31.00;48.80
31379;DHT22;61664;48.112;11.662;2023-07-31T14:21:58;31.40;47.20
31379;DHT22;61664;48.112;11.662;2023-07-31T14:24:38;31.60;46.90
31379;DHT22;61664;48.112;11.662;2023-07-31T14:27:05;31.80;47.30
31379;DHT22;61664;48.112;11.662;2023-07-31T14:29:32;31.90;47.10
31379;DHT22;61664;48.112;11.662;2023-07-31T14:31:59;31.90;45.60
31379;DHT22;61664;48.112;11.662;2023-07-31T14:34:27;31.80;45.40
31379;DHT22;61664;48.112;11.662;2023-07-31T14:36:54;31.70;45.90
31379;DHT22;61664;48.112;11.662;2023-07-31T14:39:21;31.50;45.20
31379;DHT22;61664;48.112;11.662;2023-07-31T14:41:48;31.30;44.50
31379;DHT22;61664;48.112;11.662;2023-07-31T14:44:15;31.20;45.50
31379;DHT22;61664;48.112;11.662;2023-07-31T14:46:42;31.30;47.20
31379;DHT22;61664;48.112;11.662;2023-07-31T14:49:09;31.40;46.60
31379;DHT22;61664;48.112;11.662;2023-07-31T14:51:36;31.50;44.00
31379;DHT22;61664;48.112;11.662;2023-07-31T14:54:03;31.40;44.70
31379;DHT22;61664;48.112;11.662;2023-07-31T14:56:30;31.30;44.20
31379;DHT22;61664;48.112;11.662;2023-07-31T14:58:57;31.10;43.50
31379;DHT22;61664;48.112;11.662;2023-07-31T15:01:24;31.00;44.80
31379;DHT22;61664;48.112;11.662;2023-07-31T15:03:51;31.00;45.80
31379;DHT22;61664;48.112;11.662;2023-07-31T15:06:18;31.10;47.20
31379;DHT22;61664;48.112;11.662;2023-07-31T15:08:45;31.20;47.30
31379;DHT22;61664;48.112;11.662;2023-07-31T15:11:12;31.40;46.60
31379;DHT22;61664;48.112;11.662;2023-07-31T15:13:39;31.50;46.30
31379;DHT22;61664;48.112;11.662;2023-07-31T15:16:06;31.60;46.70
31379;DHT22;61664;48.112;11.662;2023-07-31T15:18:33;31.60;46.00
31379;DHT22;61664;48.112;11.662;2023-07-31T15:21:00;31.60;45.80
31379;DHT22;61664;48.112;11.662;2023-07-31T15:23:27;31.50;45.10
31379;DHT22;61664;48.112;11.662;2023-07-31T15:25:54;31.40;44.80
31379;DHT22;61664;48.112;11.662;2023-07-31T15:28:21;31.30;44.00
31379;DHT22;61664;48.112;11.662;2023-07-31T15:30:48;31.00;44.10
31379;DHT22;61664;48.112;11.662;2023-07-31T15:33:15;30.80;44.30
31379;DHT22;61664;48.112;11.662;2023-07-31T15:35:42;30.70;44.60